Time;durP1;ratioP1;P1;durP2;ratioP2;P2;SDS_P1;SDS_P2;PMS_P1;PMS_P2;Temp;Humidity;BMP_temperature;BMP_pressure;BME280_temperature;BME280_humidity;BME280_pressure;Samples;Min_cycle;Max_cycle;Signal;HPM_P1;HPM_P2
2022/01/28 00:04:51;;;;;;;3.17;2.22;;;;;;;17.46;22.21;98380.34;5168612;27;20023;-63
2022/01/28 00:07:16;;;;;;;3.58;2.35;;;;;;;17.45;22.22;98378.69;5171333;27;20007;-63
2022/01/28 00:09:42;;;;;;;3.95;2.50;;;;;;;17.45;22.43;98381.34;5171235;27;20147;-63
2022/01/28 00:12:09;;;;;;;3.80;2.55;;;;;;;17.43;22.26;98376.22;5171744;27;20247;-63
2022/01/28 00:38:47;;;;;;;3.55;2.22;;;;;;;17.39;22.73;98337.50;5136520;27;20022;-62
2022/01/28 00:41:14;;;;;;;2.90;1.98;;;;;;;17.40;22.96;98347.19;5171338;27;20089;-63
2022/01/28 00:43:40;;;;;;;3.97;2.80;;;;;;;17.41;22.58;98345.34;5183720;27;20132;-63
2022/01/28 00:46:06;;;;;;;4.18;3.13;;;;;;;17.41;22.53;98342.69;5192247;27;20207;-63
2022/01/28 00:48:31;;;;;;;4.07;2.67;;;;;;;17.37;22.51;98340.38;5192167;27;20088;-63
2022/01/28 00:50:57;;;;;;;4.78;3.00;;;;;;;17.38;22.45;98342.03;5170810;27;20045;-63
2022/01/28 00:53:23;;;;;;;3.67;2.35;;;;;;;17.39;22.44;98340.19;5182942;27;20175;-62
2022/01/28 00:55:48;;;;;;;3.30;2.00;;;;;;;17.38;22.47;98330.50;5191996;27;20085;-62
2022/01/28 00:58:14;;;;;;;3.28;2.42;;;;;;;17.36;22.49;98325.38;5191884;27;20029;-63
2022/01/28 01:00:40;;;;;;;5.80;3.00;;;;;;;17.40;22.27;98333.81;5172861;27;20026;-60
2022/01/28 01:03:06;;;;;;;3.05;2.30;;;;;;;17.41;22.38;98324.78;5171456;27;20026;-60
2022/01/28 01:05:33;;;;;;;4.40;2.33;;;;;;;17.42;22.39;98322.94;5160725;27;20019;-63
2022/01/28 01:08:03;;;;;;;5.28;2.60;;;;;;;17.42;22.68;98320.25;5149578;27;22490;-62
2022/01/28 01:10:29;;;;;;;4.32;2.20;;;;;;;17.43;22.66;98313.88;5162786;27;20036;-64
2022/01/28 01:12:55;;;;;;;6.28;2.78;;;;;;;17.45;22.41;98303.81;5170457;27;20224;-63
2022/01/28 01:15:24;;;;;;;3.65;2.55;;;;;;;17.46;22.46;98310.81;5169823;27;20018;-63
2022/01/28 01:23:23;;;;;;;4.53;2.53;;;;;;;17.49;22.54;98289.03;5185394;27;20011;-68
2022/01/28 01:25:54;;;;;;;3.67;2.63;;;;;;;17.50;22.42;98301.38;5169878;27;20057;-63
2022/01/28 01:28:22;;;;;;;3.60;2.50;;;;;;;17.52;22.23;98294.00;5170365;27;20070;-63
2022/01/28 01:30:48;;;;;;;4.43;2.60;;;;;;;17.51;21.57;98287.00;5170307;27;20023;-63
2022/01/28 01:33:19;;;;;;;5.72;2.90;;;;;;;17.54;21.80;98290.09;5170560;27;20018;-63
2022/01/28 01:35:45;;;;;;;4.18;2.65;;;;;;;17.54;21.91;98284.75;5169913;27;20025;-63
2022/01/28 01:38:11;;;;;;;3.00;2.42;;;;;;;17.55;22.04;98288.25;5170324;27;20216;-64
2022/01/28 01:41:02;;;;;;;3.92;2.95;;;;;;;17.59;21.95;98286.81;5170196;27;20123;-63
2022/01/28 01:46:13;;;;;;;5.13;2.70;;;;;;;17.63;21.74;98279.25;5169802;27;20015;-63
2022/01/28 01:54:06;;;;;;;3.75;2.78;;;;;;;17.52;21.77;98270.75;5149182;27;20022;-63
2022/01/28 01:56:34;;;;;;;4.85;3.35;;;;;;;17.51;21.60;98266.41;5149170;27;20015;-64
2022/01/28 01:59:00;;;;;;;5.10;2.97;;;;;;;17.48;21.56;98265.97;5163490;27;20124;-63
2022/01/28 02:01:26;;;;;;;6.15;2.85;;;;;;;17.44;21.50;98267.38;5169990;27;20029;-63
2022/01/28 02:03:52;;;;;;;3.75;3.30;;;;;;;17.41;21.65;98265.13;5170177;27;20014;-64
2022/01/28 02:06:20;;;;;;;4.32;2.92;;;;;;;17.40;21.49;98269.63;5169770;27;20018;-63
2022/01/28 02:08:46;;;;;;;5.30;3.13;;;;;;;17.35;21.86;98262.22;5168853;27;20006;-64
2022/01/28 02:11:12;;;;;;;3.63;2.75;;;;;;;17.35;21.58;98266.75;5169598;27;20124;-64
2022/01/28 02:13:38;;;;;;;4.45;2.50;;;;;;;17.32;21.84;98261.78;5190588;27;20029;-65
2022/01/28 02:16:05;;;;;;;4.60;2.78;;;;;;;17.31;21.56;98274.31;5190508;27;20018;-64
2022/01/28 02:18:31;;;;;;;3.88;2.60;;;;;;;17.27;21.80;98265.06;5184419;27;20018;-64
2022/01/28 02:21:04;;;;;;;4.28;2.03;;;;;;;17.32;22.24;98269.81;5169681;27;20086;-64
2022/01/28 02:23:30;;;;;;;3.15;2.38;;;;;;;17.30;21.81;98269.16;5169203;27;20034;-64
2022/01/28 02:25:58;;;;;;;3.40;2.33;;;;;;;17.30;21.46;98255.81;5169270;27;20120;-64
2022/01/28 02:28:25;;;;;;;4.80;2.80;;;;;;;17.29;21.57;98257.63;5169282;27;20168;-64
2022/01/28 02:30:51;;;;;;;5.07;3.13;;;;;;;17.27;21.59;98250.84;5169422;27;20030;-64
2022/01/28 02:33:20;;;;;;;3.17;2.40;;;;;;;17.27;21.58;98250.84;5169541;27;20091;-65
2022/01/28 02:35:47;;;;;;;3.63;2.38;;;;;;;17.26;21.79;98251.88;5169380;27;20030;-65
2022/01/28 02:38:15;;;;;;;3.58;2.63;;;;;;;17.27;21.67;98243.66;5169172;27;20033;-65
2022/01/28 02:40:46;;;;;;;2.92;2.30;;;;;;;17.27;21.51;98232.13;5169437;27;20068;-65
2022/01/28 02:43:31;;;;;;;;;;;;;;;17.17;22.63;98235.16;5170033;27;20181;-65
2022/01/28 02:46:04;;;;;;;4.07;2.55;;;;;;;17.21;22.35;98228.41;5169670;27;19895;-65
2022/01/28 02:48:31;;;;;;;4.93;2.72;;;;;;;17.22;21.75;98238.06;5169069;27;20081;-65
2022/01/28 02:53:57;;;;;;;3.00;2.70;;;;;;;17.19;21.97;98222.41;5151339;27;20039;-65
2022/01/28 02:56:37;;;;;;;3.65;2.50;;;;;;;17.18;21.95;98210.06;5169199;27;20026;-65
2022/01/28 02:59:02;;;;;;;3.70;2.67;;;;;;;17.18;21.79;98207.41;5168568;27;20019;-64
2022/01/28 03:01:28;;;;;;;6.20;2.67;;;;;;;17.18;21.68;98202.91;5169281;27;20050;-64
2022/01/28 03:03:55;;;;;;;3.35;2.20;;;;;;;17.21;21.72;98194.47;5169147;27;20019;-65
2022/01/28 03:06:22;;;;;;;4.20;2.40;;;;;;;17.22;21.71;98190.78;5151706;27;20025;-64
2022/01/28 03:08:57;;;;;;;3.33;2.83;;;;;;;17.24;21.69;98201.28;5156151;27;20019;-64
2022/01/28 03:16:35;;;;;;;3.92;2.88;;;;;;;17.19;21.70;98199.22;5168989;27;20027;-64
2022/01/28 03:19:14;;;;;;;3.60;2.72;;;;;;;17.18;21.73;98197.56;5168615;27;20235;-64
2022/01/28 03:21:43;;;;;;;3.65;2.90;;;;;;;17.16;21.82;98194.25;5168974;27;20230;-65
2022/01/28 03:24:10;;;;;;;4.28;2.95;;;;;;;17.15;21.78;98189.09;5168547;27;20030;-64
2022/01/28 03:26:36;;;;;;;3.50;2.63;;;;;;;17.16;21.84;98193.41;5168923;27;20025;-64
2022/01/28 03:29:03;;;;;;;5.53;3.25;;;;;;;17.16;21.77;98201.44;5168872;27;20027;-64
2022/01/28 03:31:29;;;;;;;4.82;3.20;;;;;;;17.17;21.57;98205.75;5168971;27;20057;-64
2022/01/28 03:33:54;;;;;;;4.18;3.22;;;;;;;17.15;21.71;98210.47;5168268;27;20023;-64
2022/01/28 03:36:20;;;;;;;4.85;3.05;;;;;;;17.18;21.87;98210.06;5168750;27;20149;-64
2022/01/28 03:38:48;;;;;;;4.70;3.20;;;;;;;17.14;21.70;98200.78;5171596;27;20142;-64
2022/01/28 03:41:17;;;;;;;4.13;2.60;;;;;;;17.17;22.02;98203.06;5172689;27;20158;-65
2022/01/28 03:43:45;;;;;;;4.50;2.80;;;;;;;17.15;22.15;98192.59;5172566;27;20022;-65
2022/01/28 03:46:11;;;;;;;5.25;3.28;;;;;;;17.16;22.23;98188.06;5172245;27;20082;-64
2022/01/28 03:48:37;;;;;;;5.57;3.72;;;;;;;17.16;21.92;98183.56;5172398;27;20166;-64
2022/01/28 03:51:03;;;;;;;4.70;3.42;;;;;;;17.17;21.90;98184.38;5172377;27;20029;-64
2022/01/28 03:53:49;;;;;;;5.70;3.20;;;;;;;17.16;21.92;98172.03;5172349;27;20235;-65
2022/01/28 03:56:15;;;;;;;5.45;3.75;;;;;;;17.17;21.74;98179.03;5169903;27;20064;-64
2022/01/28 03:58:41;;;;;;;4.68;3.75;;;;;;;17.16;21.96;98182.72;5171926;27;20127;-65
2022/01/28 04:01:14;;;;;;;6.78;4.10;;;;;;;17.17;21.68;98181.69;5172305;27;20018;-64
2022/01/28 04:03:47;;;;;;;6.32;3.95;;;;;;;17.18;22.09;98170.81;5172406;27;20023;-64
2022/01/28 04:11:31;;;;;;;5.90;3.85;;;;;;;17.17;21.66;98179.88;5172015;27;20147;-64
2022/01/28 04:14:06;;;;;;;6.18;4.60;;;;;;;17.16;21.63;98183.56;5172030;27;20095;-64
2022/01/28 04:17:18;;;;;;;5.28;4.07;;;;;;;17.13;21.62;98177.78;5171923;27;20029;-64
2022/01/28 04:19:17;;;;;;;6.07;4.25;;;;;;;17.11;21.53;98185.19;5171410;27;20033;-64
2022/01/28 04:21:42;;;;;;;6.10;4.10;;;;;;;17.11;21.85;98169.13;5171522;27;20022;-64
2022/01/28 04:24:08;;;;;;;5.45;3.88;;;;;;;17.08;21.89;98171.19;5171160;27;20235;-64
2022/01/28 04:26:33;;;;;;;6.53;4.47;;;;;;;17.10;22.02;98162.13;5171477;27;20046;-64
2022/01/28 04:28:59;;;;;;;5.40;4.15;;;;;;;17.11;21.84;98169.94;5171571;27;20018;-64
2022/01/28 04:31:24;;;;;;;7.43;4.57;;;;;;;17.08;21.82;98168.50;5171672;27;20014;-64
2022/01/28 04:33:52;;;;;;;6.68;4.18;;;;;;;17.13;21.90;98169.78;5153279;27;20102;-63
2022/01/28 04:36:19;;;;;;;6.15;4.18;;;;;;;17.15;22.13;98159.69;5171474;27;20071;-65
2022/01/28 04:38:59;;;;;;;6.22;3.83;;;;;;;17.14;21.99;98171.41;5171067;27;20014;-63
2022/01/28 04:41:34;;;;;;;5.30;3.72;;;;;;;17.13;21.98;98167.91;5171511;27;20018;-63
2022/01/28 04:44:12;;;;;;;6.57;4.60;;;;;;;17.10;21.78;98168.28;5171346;27;20027;-64
2022/01/28 04:46:51;;;;;;;6.28;4.32;;;;;;;17.11;21.59;98177.97;5171308;27;20077;-65
2022/01/28 04:49:24;;;;;;;7.75;4.53;;;;;;;17.11;21.93;98180.63;5170639;27;20101;-65
2022/01/28 04:52:14;;;;;;;7.15;4.20;;;;;;;17.11;21.91;98164.59;5171206;27;20030;-65
2022/01/28 05:00:06;;;;;;;6.03;4.45;;;;;;;17.08;21.54;98175.69;5171281;27;20097;-65
2022/01/28 05:07:42;;;;;;;6.13;4.32;;;;;;;17.06;21.68;98167.03;5150100;27;20075;-65
2022/01/28 05:10:39;;;;;;;6.97;4.57;;;;;;;17.05;21.67;98166.22;5150139;27;20033;-65
2022/01/28 05:13:27;;;;;;;6.78;4.40;;;;;;;17.06;21.75;98169.69;5149658;27;20067;-65
2022/01/28 05:16:28;;;;;;;6.53;4.57;;;;;;;17.05;21.87;98160.88;5149724;27;20220;-65
2022/01/28 05:26:52;;;;;;;6.65;4.32;;;;;;;17.00;21.62;98147.28;5149845;27;20050;-65
2022/01/28 05:29:18;;;;;;;6.60;4.60;;;;;;;17.01;22.05;98143.56;5149708;27;20027;-65
2022/01/28 05:31:43;;;;;;;6.70;4.68;;;;;;;17.01;21.82;98143.56;5149707;27;20224;-65
2022/01/28 05:34:09;;;;;;;7.20;4.43;;;;;;;17.00;21.66;98136.59;5166531;27;20026;-66
2022/01/28 05:36:35;;;;;;;5.22;3.85;;;;;;;17.03;22.00;98144.22;5170135;27;20048;-65
2022/01/28 05:39:00;;;;;;;8.80;4.63;;;;;;;17.04;21.80;98143.19;5169700;27;20036;-64
2022/01/28 05:41:26;;;;;;;5.88;4.22;;;;;;;17.03;22.00;98132.72;5170064;27;20019;-64
2022/01/28 05:43:51;;;;;;;7.05;4.22;;;;;;;17.05;21.98;98133.34;5169510;27;20022;-64
2022/01/28 05:46:20;;;;;;;6.78;4.32;;;;;;;17.04;21.64;98134.38;5169798;27;20018;-64
2022/01/28 05:48:45;;;;;;;5.28;4.18;;;;;;;17.05;21.66;98136.00;5170085;27;20023;-64
2022/01/28 05:51:12;;;;;;;6.50;4.07;;;;;;;17.03;22.02;98146.88;5170061;27;20029;-64
2022/01/28 05:53:38;;;;;;;5.68;4.63;;;;;;;17.06;21.75;98140.31;5169956;27;20089;-64
2022/01/28 05:56:04;;;;;;;6.85;5.05;;;;;;;17.06;22.16;98135.81;5169524;27;20030;-64
2022/01/28 05:58:29;;;;;;;5.18;4.03;;;;;;;17.05;21.91;98139.50;5169365;27;20087;-64
2022/01/28 06:00:55;;;;;;;5.93;4.00;;;;;;;17.03;22.13;98132.72;5169285;27;20038;-64
2022/01/28 06:03:20;;;;;;;7.38;4.30;;;;;;;17.01;22.05;98135.56;5169586;27;20071;-64
2022/01/28 06:05:48;;;;;;;6.53;4.10;;;;;;;17.02;22.22;98125.72;5157477;27;20015;-64
2022/01/28 06:08:14;;;;;;;5.30;3.92;;;;;;;17.00;22.01;98125.91;5153307;27;20014;-64
2022/01/28 06:10:39;;;;;;;6.53;4.10;;;;;;;17.05;22.05;98123.47;5169801;27;20136;-64
2022/01/28 06:13:05;;;;;;;6.50;4.18;;;;;;;17.06;22.45;98127.78;5169645;27;20102;-64
2022/01/28 06:15:32;;;;;;;5.63;4.10;;;;;;;17.10;22.06;98114.03;5169542;27;20099;-65
2022/01/28 06:17:57;;;;;;;5.57;4.18;;;;;;;17.08;21.89;98115.06;5169654;27;20030;-65
2022/01/28 06:20:23;;;;;;;7.13;4.03;;;;;;;17.11;22.05;98115.69;5169639;27;20243;-65
2022/01/28 06:22:49;;;;;;;5.68;4.15;;;;;;;17.11;22.02;98115.69;5169123;27;20122;-64
2022/01/28 06:25:15;;;;;;;5.70;4.13;;;;;;;17.11;22.19;98110.34;5169563;27;20224;-64
2022/01/28 06:27:42;;;;;;;5.85;4.03;;;;;;;17.13;22.32;98113.66;5169361;27;20042;-65
2022/01/28 06:30:09;;;;;;;6.85;4.22;;;;;;;17.11;22.02;98110.34;5169608;27;20129;-64
2022/01/28 06:32:34;;;;;;;4.63;3.90;;;;;;;17.13;21.99;98108.31;5169722;27;20027;-64
2022/01/28 06:35:02;;;;;;;7.03;4.03;;;;;;;17.16;22.22;98107.88;5169241;27;20148;-64
2022/01/28 06:37:48;;;;;;;6.10;3.78;;;;;;;17.16;22.28;98102.53;5169301;27;20031;-64
2022/01/28 06:40:16;;;;;;;6.88;3.95;;;;;;;17.20;22.59;98109.16;5169069;27;20079;-64
2022/01/28 06:42:42;;;;;;;4.78;3.13;;;;;;;17.30;22.90;98114.94;5169285;27;20033;-64
2022/01/28 06:45:09;;;;;;;5.15;3.65;;;;;;;17.41;22.90;98121.56;5169238;27;20228;-64
2022/01/28 06:47:38;;;;;;;5.30;3.80;;;;;;;17.50;22.86;98112.31;5169359;27;20144;-64
2022/01/28 06:50:08;;;;;;;7.57;4.05;;;;;;;17.59;22.63;98107.63;5169601;27;20014;-64
2022/01/28 06:52:34;;;;;;;6.93;3.28;;;;;;;17.61;23.18;98104.78;5169112;27;20023;-64
2022/01/28 06:55:01;;;;;;;5.55;3.40;;;;;;;17.64;22.92;98099.84;5169294;27;20031;-64
2022/01/28 06:57:28;;;;;;;4.57;3.45;;;;;;;17.73;22.84;98108.50;5169059;27;20277;-64
2022/01/28 06:59:54;;;;;;;4.20;3.42;;;;;;;17.78;22.96;98099.84;5169151;27;20022;-64
2022/01/28 07:02:20;;;;;;;5.40;3.95;;;;;;;17.82;22.95;98104.59;5169155;27;20042;-64
2022/01/28 07:04:46;;;;;;;5.55;4.00;;;;;;;17.87;23.13;98108.53;5169078;27;20018;-64
2022/01/28 07:07:11;;;;;;;5.63;4.15;;;;;;;17.92;23.02;98109.56;5169150;27;20139;-64
2022/01/28 07:09:37;;;;;;;4.85;3.22;;;;;;;17.97;22.87;98114.28;5169180;27;20068;-64
2022/01/28 07:12:03;;;;;;;5.38;3.72;;;;;;;17.99;23.29;98102.41;5168906;27;20073;-64
2022/01/28 07:14:29;;;;;;;5.20;4.28;;;;;;;18.03;23.13;98115.34;5173028;27;20023;-64
2022/01/28 07:16:54;;;;;;;4.88;3.30;;;;;;;18.06;23.08;98109.59;5173361;27;20038;-64
2022/01/28 07:19:20;;;;;;;5.63;3.75;;;;;;;18.07;23.05;98106.75;5173020;27;20295;-64
2022/01/28 07:21:46;;;;;;;5.00;3.60;;;;;;;18.08;23.30;98110.22;5173120;27;20067;-64
2022/01/28 07:24:11;;;;;;;4.78;3.58;;;;;;;18.11;23.43;98110.63;5172907;27;20315;-64
2022/01/28 07:26:37;;;;;;;5.28;3.53;;;;;;;18.15;22.96;98111.06;5172973;27;20090;-65
2022/01/28 07:29:02;;;;;;;6.95;4.22;;;;;;;18.18;23.27;98113.31;5172855;27;20018;-64
2022/01/28 07:31:28;;;;;;;6.57;4.28;;;;;;;18.17;22.85;98108.97;5172799;27;20090;-64
2022/01/28 07:33:53;;;;;;;6.40;4.72;;;;;;;18.17;22.67;98108.19;5172563;27;20022;-64
2022/01/28 07:36:19;;;;;;;6.45;4.38;;;;;;;18.12;22.47;98114.16;5172742;27;20091;-65
2022/01/28 07:38:45;;;;;;;7.50;4.97;;;;;;;18.12;22.50;98122.19;5172764;27;20127;-64
2022/01/28 07:41:10;;;;;;;5.30;4.25;;;;;;;18.10;22.46;98125.03;5172696;27;20014;-64
2022/01/28 07:43:38;;;;;;;5.32;4.22;;;;;;;18.09;22.29;98112.69;5172437;27;20045;-64
2022/01/28 07:46:04;;;;;;;6.75;4.18;;;;;;;18.09;22.53;98120.72;5172531;27;20022;-64
2022/01/28 07:48:30;;;;;;;6.78;4.32;;;;;;;18.08;22.48;98116.41;5172434;27;20034;-64
2022/01/28 07:50:56;;;;;;;5.78;4.47;;;;;;;18.08;22.38;98112.91;5171405;27;20010;-64
2022/01/28 07:53:22;;;;;;;5.95;4.80;;;;;;;18.08;22.29;98112.91;5172182;27;20030;-65
2022/01/28 07:55:47;;;;;;;8.25;4.35;;;;;;;18.08;21.94;98108.38;5172120;27;20045;-64
2022/01/28 07:58:13;;;;;;;7.68;4.80;;;;;;;18.08;22.12;98113.75;5172228;27;20022;-64
2022/01/28 08:00:38;;;;;;;5.47;4.30;;;;;;;18.09;22.17;98109.19;5172160;27;20023;-64
2022/01/28 08:03:04;;;;;;;8.38;5.03;;;;;;;18.08;22.10;98115.56;5171894;27;20083;-64
2022/01/28 08:05:30;;;;;;;6.85;4.18;;;;;;;18.08;22.30;98119.09;5162167;27;20031;-64
2022/01/28 08:07:55;;;;;;;6.55;4.75;;;;;;;18.10;22.30;98118.88;5138998;27;20014;-64
2022/01/28 08:10:21;;;;;;;6.72;5.13;;;;;;;18.13;22.17;98113.13;5172051;27;20053;-64
2022/01/28 08:12:48;;;;;;;6.70;5.13;;;;;;;18.10;22.30;98108.97;5171509;27;20038;-64
2022/01/28 08:15:15;;;;;;;6.97;4.97;;;;;;;18.11;22.33;98107.94;5171966;27;20085;-64
2022/01/28 08:17:41;;;;;;;7.22;4.80;;;;;;;18.11;22.41;98101.78;5171976;27;20026;-64
2022/01/28 08:20:07;;;;;;;8.90;6.25;;;;;;;18.12;22.35;98098.09;5171966;27;20158;-64
2022/01/28 08:22:42;;;;;;;6.15;4.38;;;;;;;18.13;22.21;98119.28;5171368;27;20018;-64
2022/01/28 08:25:08;;;;;;;9.32;6.07;;;;;;;18.14;22.20;98112.09;5170105;27;20018;-64
2022/01/28 08:27:34;;;;;;;7.95;5.70;;;;;;;18.17;22.30;98108.19;5171672;27;20063;-64
2022/01/28 08:29:59;;;;;;;7.43;5.40;;;;;;;18.17;22.21;98100.94;5171686;27;20027;-64
2022/01/28 08:32:25;;;;;;;7.93;5.47;;;;;;;18.18;22.29;98105.28;5171484;27;20208;-64
2022/01/28 08:34:50;;;;;;;6.68;4.93;;;;;;;18.19;22.26;98101.56;5171570;27;20022;-64
2022/01/28 08:37:16;;;;;;;7.70;5.45;;;;;;;18.19;22.22;98104.25;5171492;27;20054;-64
2022/01/28 08:39:42;;;;;;;8.55;5.40;;;;;;;18.18;22.09;98099.13;5171567;27;20216;-64
2022/01/28 08:42:07;;;;;;;7.88;5.40;;;;;;;18.18;22.46;98094.56;5171657;27;20015;-64
2022/01/28 08:44:33;;;;;;;7.53;5.65;;;;;;;18.20;22.44;98097.88;5171437;27;20220;-64
2022/01/28 08:46:58;;;;;;;8.13;5.95;;;;;;;18.23;22.42;98094.78;5171449;27;20019;-64
2022/01/28 08:49:24;;;;;;;8.40;5.25;;;;;;;18.24;22.18;98088.41;5171299;27;20034;-64
2022/01/28 08:51:50;;;;;;;7.15;5.55;;;;;;;18.26;22.36;98090.88;5171243;27;20022;-64
2022/01/28 08:54:16;;;;;;;8.15;6.38;;;;;;;18.28;22.35;98089.66;5171047;27;20019;-64
2022/01/28 08:56:42;;;;;;;9.15;6.20;;;;;;;18.29;22.25;98085.94;5171138;27;20075;-64
2022/01/28 08:59:08;;;;;;;9.20;5.72;;;;;;;18.30;22.24;98084.91;5171030;27;20018;-64
2022/01/28 09:01:33;;;;;;;8.00;5.60;;;;;;;18.33;22.29;98075.63;5171138;27;20025;-64
2022/01/28 09:03:59;;;;;;;11.20;7.18;;;;;;;18.36;22.41;98082.41;5171000;27;20026;-64
2022/01/28 09:06:24;;;;;;;10.18;5.90;;;;;;;18.36;22.15;98074.38;5170875;27;20025;-64
2022/01/28 09:08:53;;;;;;;8.60;5.90;;;;;;;18.38;22.20;98072.34;5170952;27;20135;-64
2022/01/28 09:13:48;;;;;;;9.73;5.88;;;;;;;18.40;22.02;98081.78;5170828;27;20024;-64
2022/01/28 09:16:14;;;;;;;7.80;6.32;;;;;;;18.39;22.33;98073.97;5170786;27;20116;-64
2022/01/28 09:18:39;;;;;;;8.93;7.22;;;;;;;18.39;22.36;98066.75;5170726;27;20038;-64
2022/01/28 09:21:05;;;;;;;6.45;5.70;;;;;;;18.38;22.42;98072.34;5170757;27;20069;-64
2022/01/28 09:23:31;;;;;;;9.90;6.60;;;;;;;18.38;22.38;98069.66;5170387;27;20231;-64
2022/01/28 09:25:57;;;;;;;8.77;6.63;;;;;;;18.38;22.19;98066.97;5170604;27;20076;-64
2022/01/28 09:28:22;;;;;;;9.27;7.30;;;;;;;18.37;22.19;98060.81;5170346;27;20014;-64
2022/01/28 09:30:48;;;;;;;7.63;6.05;;;;;;;18.40;22.66;98071.09;5169731;27;20022;-63
2022/01/28 09:33:14;;;;;;;10.88;6.72;;;;;;;18.44;22.72;98069.66;5165870;27;20022;-63
2022/01/28 09:35:41;;;;;;;10.23;6.82;;;;;;;18.52;22.72;98073.97;5149252;27;20034;-63
2022/01/28 09:38:07;;;;;;;9.93;6.57;;;;;;;18.58;22.66;98074.97;5160827;27;20030;-63
2022/01/28 09:40:33;;;;;;;10.80;7.60;;;;;;;18.65;22.51;98073.13;5169945;27;20022;-63
2022/01/28 09:43:00;;;;;;;10.55;7.47;;;;;;;18.67;22.66;98065.72;5170022;27;20060;-63
2022/01/28 09:45:26;;;;;;;8.02;6.25;;;;;;;18.68;22.67;98064.66;5169388;27;20025;-64
2022/01/28 09:47:56;;;;;;;9.93;7.03;;;;;;;18.70;22.59;98065.25;5169498;27;20018;-64
2022/01/28 09:50:23;;;;;;;9.43;7.20;;;;;;;18.70;22.51;98059.09;5169969;27;20018;-64
2022/01/28 09:52:51;;;;;;;11.77;7.80;;;;;;;18.74;22.67;98063.81;5169930;27;20160;-64
2022/01/28 09:55:37;;;;;;;10.35;7.40;;;;;;;18.74;22.91;98058.47;5169121;27;20010;-64
2022/01/28 09:58:02;;;;;;;10.57;7.68;;;;;;;18.77;23.20;98051.84;5167729;27;20028;-72
2022/01/28 10:00:30;;;;;;;10.55;8.13;;;;;;;18.79;22.83;98057.00;5165288;27;20019;-63
2022/01/28 10:03:01;;;;;;;10.73;7.78;;;;;;;18.78;22.97;98058.84;5169560;27;20018;-62
2022/01/28 10:05:34;;;;;;;;;;;;;;;18.66;23.39;98057.84;5170098;27;20042;-61
2022/01/28 10:08:06;;;;;;;12.45;7.90;;;;;;;18.61;23.08;98051.28;5169409;27;20087;-63
2022/01/28 10:10:52;;;;;;;13.85;8.10;;;;;;;18.61;23.04;98055.81;5158309;27;20019;-63
2022/01/28 10:13:32;;;;;;;10.15;8.00;;;;;;;18.61;23.12;98048.59;5168555;27;20026;-63
2022/01/28 10:16:05;;;;;;;10.00;7.80;;;;;;;18.63;23.04;98047.56;5168926;27;20042;-63
2022/01/28 10:18:55;;;;;;;11.80;9.68;;;;;;;18.67;23.10;98046.13;5168763;27;20030;-66
2022/01/28 10:21:38;;;;;;;13.98;9.07;;;;;;;18.73;23.08;98048.78;5169134;27;20088;-61
2022/01/28 10:24:20;;;;;;;11.10;7.82;;;;;;;18.75;23.09;98046.72;5169298;27;20014;-64
2022/01/28 10:26:53;;;;;;;10.60;8.27;;;;;;;18.77;22.73;98043.81;5169776;27;20186;-62
2022/01/28 10:29:32;;;;;;;15.23;9.50;;;;;;;18.76;22.81;98036.81;5168894;27;20030;-63
2022/01/28 10:32:09;;;;;;;13.63;9.52;;;;;;;18.76;22.69;98037.63;5169267;27;20018;-63
2022/01/28 10:34:55;;;;;;;11.50;9.10;;;;;;;18.76;22.72;98042.16;5169810;27;20026;-63
2022/01/28 10:37:24;;;;;;;13.55;9.20;;;;;;;18.75;22.54;98045.88;5168785;27;20027;-63
2022/01/28 10:40:09;;;;;;;12.25;9.40;;;;;;;18.74;22.62;98029.00;5169597;27;20079;-64
2022/01/28 10:42:51;;;;;;;12.35;9.60;;;;;;;18.76;22.39;98031.44;5169240;27;20112;-62
2022/01/28 10:45:21;;;;;;;13.80;9.77;;;;;;;18.73;22.09;98029.22;5169128;27;20045;-64
2022/01/28 10:47:53;;;;;;;14.73;11.23;;;;;;;18.66;22.18;98018.50;5169345;27;20085;-63
2022/01/28 10:50:30;;;;;;;13.57;9.68;;;;;;;18.59;22.09;98015.84;5173696;27;20026;-63
2022/01/28 10:53:09;;;;;;;15.43;10.07;;;;;;;18.53;22.24;98016.69;5173036;27;20216;-62
2022/01/28 10:55:38;;;;;;;13.05;10.82;;;;;;;18.49;22.33;98018.13;5183510;27;20029;-63
2022/01/28 10:58:18;;;;;;;13.77;9.98;;;;;;;18.47;22.58;98014.84;5173766;27;20089;-63
2022/01/28 11:00:49;;;;;;;16.58;11.25;;;;;;;18.45;22.54;98025.75;5173387;27;20154;-63
2022/01/28 11:03:17;;;;;;;15.23;10.82;;;;;;;18.40;22.35;98014.03;5173382;27;20234;-71
2022/01/28 11:05:44;;;;;;;15.95;11.40;;;;;;;18.42;22.59;98010.09;5173150;27;20064;-62
2022/01/28 11:08:11;;;;;;;14.88;11.13;;;;;;;18.43;22.42;98016.31;5173281;27;20171;-59
2022/01/28 11:10:38;;;;;;;14.27;10.77;;;;;;;18.43;22.40;98011.75;5173128;27;20027;-62
2022/01/28 11:13:04;;;;;;;15.45;11.27;;;;;;;18.42;22.39;98006.63;5172984;27;20034;-62
2022/01/28 11:15:31;;;;;;;16.55;11.93;;;;;;;18.41;22.48;98013.81;5173111;27;20033;-61
2022/01/28 11:17:59;;;;;;;14.52;10.65;;;;;;;18.43;22.65;98016.31;5173531;27;20078;-62
2022/01/28 11:20:32;;;;;;;18.30;12.52;;;;;;;18.45;22.38;98014.25;5173037;27;20007;-63
2022/01/28 11:23:19;;;;;;;15.05;10.80;;;;;;;18.46;22.56;98015.88;5173023;27;20041;-63
2022/01/28 11:25:59;;;;;;;15.23;11.65;;;;;;;18.47;22.57;98011.34;5172927;27;20015;-61
2022/01/28 11:29:02;;;;;;;17.03;11.37;;;;;;;18.45;22.72;98019.59;5172013;27;20221;-63
2022/01/28 11:31:44;;;;;;;17.15;12.55;;;;;;;18.44;22.48;98005.38;5130062;27;20027;-64
2022/01/28 11:34:26;;;;;;;14.85;12.32;;;;;;;18.43;22.67;98001.03;5171351;27;20076;-64
2022/01/28 11:36:57;;;;;;;19.45;13.00;;;;;;;18.44;22.50;98001.88;5170099;27;20204;-63
2022/01/28 11:39:39;;;;;;;13.98;10.57;;;;;;;18.42;22.50;98003.94;5169769;27;20015;-63
2022/01/28 11:42:06;;;;;;;13.90;10.40;;;;;;;18.43;22.63;98000.25;5164675;27;20017;-63
2022/01/28 11:44:52;;;;;;;15.95;11.65;;;;;;;18.41;22.71;98008.47;5172445;27;20224;-63
2022/01/28 11:47:42;;;;;;;15.98;11.75;;;;;;;18.41;22.64;98008.47;5172004;27;20079;-63
2022/01/28 11:50:10;;;;;;;16.08;11.88;;;;;;;18.41;22.51;98004.97;5157998;27;20026;-63
2022/01/28 11:52:42;;;;;;;16.23;12.25;;;;;;;18.40;22.36;98009.50;5172423;27;20134;-65
2022/01/28 11:55:25;;;;;;;17.83;12.35;;;;;;;18.38;22.67;98013.41;5172385;27;20011;-64
2022/01/28 11:58:12;;;;;;;16.52;13.00;;;;;;;18.34;22.46;98014.88;5172236;27;20054;-63
2022/01/28 12:00:50;;;;;;;17.05;11.95;;;;;;;18.32;22.58;98011.56;5170399;27;20187;-64
2022/01/28 12:03:31;;;;;;;15.43;11.35;;;;;;;18.29;22.82;98013.66;5172212;27;20150;-64
2022/01/28 12:05:58;;;;;;;17.03;13.50;;;;;;;18.29;22.74;98016.34;5172184;27;20117;-64
2022/01/28 12:08:29;;;;;;;16.85;12.90;;;;;;;18.29;22.59;98013.66;5172139;27;20188;-64
2022/01/28 12:10:56;;;;;;;17.70;13.20;;;;;;;18.27;22.46;98017.56;5172305;27;20033;-64
2022/01/28 12:13:32;;;;;;;14.95;11.18;;;;;;;18.26;23.03;98011.38;5171702;27;20090;-65
2022/01/28 12:16:10;;;;;;;19.92;13.25;;;;;;;18.28;22.75;98020.03;5172250;27;20227;-64
2022/01/28 12:18:45;;;;;;;16.70;12.63;;;;;;;18.28;22.71;98021.88;5171942;27;20032;-65
2022/01/28 12:21:31;;;;;;;16.60;11.95;;;;;;;18.27;22.89;98029.09;5171932;27;20295;-64
2022/01/28 12:24:20;;;;;;;18.02;12.77;;;;;;;18.24;22.85;98026.84;5171801;27;20087;-64
2022/01/28 12:27:04;;;;;;;15.30;12.07;;;;;;;18.24;23.11;98023.31;5162260;27;20179;-64
2022/01/28 12:29:34;;;;;;;16.55;12.43;;;;;;;18.26;22.86;98026.63;5171833;27;20026;-65
2022/01/28 12:32:01;;;;;;;20.67;15.32;;;;;;;18.22;22.70;98028.06;5171522;27;20019;-64
2022/01/28 12:34:27;;;;;;;17.35;13.48;;;;;;;18.21;22.76;98024.56;5171644;27;20063;-64
2022/01/28 12:36:57;;;;;;;20.45;14.43;;;;;;;18.20;22.80;98030.94;5171419;27;20027;-65
2022/01/28 12:39:54;;;;;;;16.52;13.50;;;;;;;18.19;22.65;98026.63;5171444;27;20132;-64
2022/01/28 12:42:43;;;;;;;21.20;15.07;;;;;;;18.17;22.85;98022.50;5170907;27;20120;-65
2022/01/28 12:45:03;;;;;;;;;;;;;;;18.06;23.47;98015.94;5167707;27;20231;-65
2022/01/28 12:47:33;;;;;;;20.92;15.98;;;;;;;18.09;22.99;98016.31;5171314;27;19926;-65
2022/01/28 12:50:04;;;;;;;18.23;14.70;;;;;;;18.09;22.71;98010.16;5171340;27;20208;-65
2022/01/28 12:52:36;;;;;;;21.50;15.52;;;;;;;18.11;22.92;98018.81;5171249;27;20023;-64
2022/01/28 12:55:03;;;;;;;22.40;14.88;;;;;;;18.09;22.73;98004.81;5171051;27;20018;-64
2022/01/28 12:57:29;;;;;;;20.65;14.93;;;;;;;18.10;22.83;98014.50;5170969;27;20061;-65
2022/01/28 12:59:54;;;;;;;19.98;14.85;;;;;;;18.09;22.77;98002.13;5171110;27;20139;-65